createdAt,value
2018-04-12T00:00:20.223Z,8.63
2018-04-12T00:02:47.716Z,8.60
2018-04-12T00:05:15.289Z,8.57
2018-04-12T00:07:43.459Z,8.55
2018-04-12T00:10:12.017Z,8.53
2018-04-12T00:12:40.228Z,8.50
2018-04-12T00:15:08.541Z,8.47
2018-04-12T00:17:37.747Z,8.44
2018-04-12T00:20:05.282Z,8.42
2018-04-12T00:22:32.778Z,8.40
2018-04-12T00:25:00.356Z,8.37
2018-04-12T00:27:31.990Z,8.37
2018-04-12T00:30:01.031Z,8.35
2018-04-12T00:32:29.198Z,8.35
2018-04-12T00:34:57.793Z,8.34
2018-04-12T00:37:25.337Z,8.34
2018-04-12T00:39:52.846Z,8.34
2018-04-12T00:42:21.250Z,8.35
2018-04-12T00:44:49.589Z,8.37
2018-04-12T00:47:18.783Z,8.40
2018-04-12T00:49:48.876Z,8.42
2018-04-12T00:52:16.363Z,8.44
2018-04-12T00:54:43.966Z,8.47
2018-04-12T00:57:11.459Z,8.51
2018-04-12T00:59:38.955Z,8.54
2018-04-12T01:02:12.364Z,8.57
2018-04-12T01:04:40.505Z,8.60
2018-04-12T01:07:11.887Z,8.64
2018-04-12T01:09:39.500Z,8.68
2018-04-12T01:12:07.013Z,8.71
2018-04-12T01:14:34.514Z,8.75
2018-04-12T01:17:02.024Z,8.79
2018-04-12T01:19:29.524Z,8.82
2018-04-12T01:21:57.088Z,8.85
2018-04-12T01:24:24.622Z,8.86
2018-04-12T01:26:52.298Z,8.87
2018-04-12T01:29:19.810Z,8.88
2018-04-12T01:31:47.290Z,8.91
2018-04-12T01:34:14.798Z,8.94
2018-04-12T01:36:42.731Z,8.97
2018-04-12T01:39:11.815Z,8.98
2018-04-12T01:41:39.567Z,9.00
2018-04-12T01:44:07.739Z,9.01
2018-04-12T01:46:35.269Z,9.00
2018-04-12T01:49:02.772Z,8.98
2018-04-12T01:51:30.278Z,8.96
2018-04-12T01:53:57.783Z,8.94
2018-04-12T01:56:25.300Z,8.92
2018-04-12T01:58:52.903Z,8.89
2018-04-12T02:01:20.436Z,8.85
2018-04-12T02:03:47.924Z,8.81
2018-04-12T02:06:15.442Z,8.77
2018-04-12T02:08:42.951Z,8.73
2018-04-12T02:11:10.470Z,8.71
2018-04-12T02:13:38.024Z,8.69
2018-04-12T02:16:06.216Z,8.67
2018-04-12T02:18:33.951Z,8.65
2018-04-12T02:21:02.168Z,8.63
2018-04-12T02:23:29.676Z,8.61
2018-04-12T02:25:57.158Z,8.58
2018-04-12T02:28:24.718Z,8.56
2018-04-12T02:30:52.272Z,8.55
2018-04-12T02:33:20.042Z,8.52
2018-04-12T02:35:48.202Z,8.49
2018-04-12T02:38:15.706Z,8.46
2018-04-12T02:40:43.233Z,8.43
2018-04-12T02:43:10.714Z,8.40
2018-04-12T02:45:38.216Z,8.36
2018-04-12T02:48:05.747Z,8.34
2018-04-12T02:50:35.209Z,8.31
2018-04-12T02:53:03.774Z,8.27
2018-04-12T02:55:31.254Z,8.24
2018-04-12T02:57:58.782Z,8.22
2018-04-12T03:00:26.301Z,8.19
2018-04-12T03:02:53.799Z,8.18
2018-04-12T03:05:21.317Z,8.14
2018-04-12T03:07:49.754Z,8.11
2018-04-12T03:10:17.328Z,8.08
2018-04-12T03:12:44.881Z,8.05
2018-04-12T03:15:12.392Z,8.03
2018-04-12T03:17:39.883Z,7.99
2018-04-12T03:20:07.382Z,7.97
2018-04-12T03:22:35.290Z,7.95
2018-04-12T03:25:03.712Z,7.92
2018-04-12T03:27:31.739Z,7.87
2018-04-12T03:29:59.248Z,7.77
2018-04-12T03:32:27.251Z,7.75
2018-04-12T03:34:54.730Z,7.72
2018-04-12T03:40:15.263Z,7.70
2018-04-12T03:42:43.310Z,7.68
2018-04-12T03:45:12.087Z,7.68
2018-04-12T03:47:39.606Z,7.65
2018-04-12T03:50:07.102Z,7.64
2018-04-12T03:52:34.606Z,7.63
2018-04-12T03:55:02.109Z,7.59
2018-04-12T03:57:29.878Z,7.55
2018-04-12T03:59:57.489Z,7.53
2018-04-12T04:02:25.035Z,7.50
2018-04-12T04:04:52.514Z,7.49
2018-04-12T04:07:20.042Z,7.48
2018-04-12T04:09:47.552Z,7.48
2018-04-12T04:12:15.026Z,7.42
2018-04-12T04:14:48.405Z,7.35
2018-04-12T04:17:28.811Z,7.28
2018-04-12T04:20:07.969Z,7.24
2018-04-12T04:22:35.450Z,7.22
2018-04-12T04:25:02.955Z,7.21
2018-04-12T04:27:30.462Z,7.20
2018-04-12T04:29:57.984Z,7.17
2018-04-12T04:32:25.500Z,7.16
2018-04-12T04:34:53.106Z,7.14
2018-04-12T04:37:23.732Z,7.13
2018-04-12T04:39:51.266Z,7.12
2018-04-12T04:42:19.618Z,7.10
2018-04-12T04:44:47.118Z,7.07
2018-04-12T04:47:14.613Z,7.06
2018-04-12T04:49:42.362Z,7.06
2018-04-12T04:52:11.307Z,7.05
2018-04-12T04:54:39.667Z,7.03
2018-04-12T04:57:07.170Z,6.99
2018-04-12T04:59:34.678Z,6.98
2018-04-12T05:02:02.203Z,6.99
2018-04-12T05:04:29.706Z,6.98
2018-04-12T05:06:57.226Z,6.97
2018-04-12T05:09:24.739Z,6.93
2018-04-12T05:11:53.175Z,6.89
2018-04-12T05:14:20.689Z,6.85
2018-04-12T05:16:48.178Z,6.83
2018-04-12T05:19:15.714Z,6.81
2018-04-12T05:21:43.215Z,6.78
2018-04-12T05:24:11.641Z,6.79
2018-04-12T05:26:39.762Z,6.78
2018-04-12T05:29:08.170Z,6.77
2018-04-12T05:31:35.667Z,6.78
2018-04-12T05:34:03.158Z,6.77
2018-04-12T05:36:30.665Z,6.76
2018-04-12T05:38:58.180Z,6.76
2018-04-12T05:41:25.720Z,6.76
2018-04-12T05:43:53.295Z,6.79
2018-04-12T05:46:20.817Z,6.80
2018-04-12T05:48:48.337Z,6.81
2018-04-12T05:51:15.845Z,6.83
2018-04-12T05:53:43.333Z,6.84
2018-04-12T05:56:10.826Z,6.85
2018-04-12T05:58:41.458Z,6.87
2018-04-12T06:01:11.187Z,6.88
2018-04-12T06:03:39.865Z,6.89
2018-04-12T06:06:07.827Z,6.89
2018-04-12T06:08:35.749Z,6.91
2018-04-12T06:11:03.242Z,6.93
2018-04-12T06:13:30.782Z,6.96
2018-04-12T06:16:00.320Z,7.00
2018-04-12T06:18:28.858Z,7.03
2018-04-12T06:20:56.809Z,7.05
2018-04-12T06:23:24.318Z,7.08
2018-04-12T06:25:52.220Z,7.12
2018-04-12T06:28:19.753Z,7.16
2018-04-12T06:30:47.266Z,7.20
2018-04-12T06:33:15.210Z,7.25
2018-04-12T06:35:43.618Z,7.30
2018-04-12T06:38:12.426Z,7.35
2018-04-12T06:40:39.926Z,7.41
2018-04-12T06:43:07.446Z,7.47
2018-04-12T06:45:34.924Z,7.54
2018-04-12T06:48:03.289Z,7.61
2018-04-12T06:50:31.794Z,7.67
2018-04-12T06:53:00.014Z,7.77
2018-04-12T06:55:28.407Z,7.84
2018-04-12T06:57:56.898Z,7.92
2018-04-12T07:00:24.393Z,8.00
2018-04-12T07:02:51.884Z,8.09
2018-04-12T07:05:19.396Z,8.19
2018-04-12T07:07:47.775Z,8.29
2018-04-12T07:10:15.342Z,8.38
2018-04-12T07:12:43.757Z,8.48
2018-04-12T07:15:11.261Z,8.58
2018-04-12T08:01:20.910Z,10.35
2018-04-12T08:03:51.302Z,10.46
2018-04-12T08:06:36.978Z,10.56
2018-04-12T08:09:04.728Z,10.65
2018-04-12T08:11:32.425Z,10.75
2018-04-12T08:14:00.187Z,10.86
2018-04-12T08:25:43.879Z,11.27
2018-04-12T08:28:11.543Z,11.36
2018-04-12T08:30:39.224Z,11.44
2018-04-12T08:33:07.728Z,11.50
2018-04-12T08:44:43.698Z,11.91
2018-04-12T08:47:11.283Z,11.98
2018-04-12T08:49:38.956Z,12.04
2018-04-12T09:01:14.782Z,12.20
2018-04-12T09:03:42.412Z,12.25
2018-04-12T09:06:09.985Z,12.34
2018-04-12T09:17:46.521Z,12.55
2018-04-12T09:20:14.269Z,12.56
2018-04-12T09:22:41.836Z,12.59
2018-04-12T09:31:19.521Z,12.64
2018-04-12T09:33:56.819Z,12.67
2018-04-12T09:36:24.411Z,12.71
2018-04-12T09:38:52.065Z,12.74
2018-04-12T09:41:20.496Z,12.75
2018-04-12T09:46:39.678Z,12.80
2018-04-12T09:49:11.978Z,12.82
2018-04-12T09:51:39.560Z,12.83
2018-04-12T09:54:07.215Z,12.85
2018-04-12T09:56:34.774Z,12.87
2018-04-12T09:59:03.292Z,12.85
2018-04-12T10:10:07.225Z,13.10
2018-04-12T10:12:37.409Z,13.19
2018-04-12T10:15:05.012Z,13.29
2018-04-12T10:26:41.168Z,13.60
2018-04-12T10:29:08.892Z,13.69
2018-04-12T10:31:36.923Z,13.79
2018-04-12T10:43:09.280Z,14.13
2018-04-12T10:45:36.965Z,14.23
2018-04-12T10:48:04.644Z,14.34
2018-04-12T10:59:44.857Z,14.75
2018-04-12T11:02:12.672Z,14.84
2018-04-12T11:04:40.345Z,14.92
2018-04-12T11:07:08.337Z,14.97
2018-04-12T11:18:44.980Z,15.22
2018-04-12T11:21:12.642Z,15.28
2018-04-12T11:23:40.917Z,15.38
2018-04-12T11:35:17.434Z,15.82
2018-04-12T11:37:44.975Z,15.91
2018-04-12T11:40:12.653Z,16.03
2018-04-12T11:51:48.651Z,16.50
2018-04-12T11:54:16.214Z,16.64
2018-04-12T11:56:43.817Z,16.73
2018-04-12T12:08:20.264Z,16.87
2018-04-12T12:10:48.863Z,16.93
2018-04-12T12:13:30.085Z,17.07
2018-04-12T12:25:07.568Z,17.66
2018-04-12T12:42:57.900Z,18.62
2018-04-12T12:45:27.403Z,18.71
2018-04-12T12:47:57.157Z,18.82
2018-04-12T12:59:34.132Z,19.18
2018-04-12T13:02:01.747Z,19.27
2018-04-12T13:04:29.323Z,19.33
2018-04-12T13:16:13.036Z,19.57
2018-04-12T13:18:40.612Z,19.45
2018-04-12T13:21:08.200Z,19.36
2018-04-12T13:23:35.778Z,19.35
2018-04-12T13:26:07.552Z,19.39
2018-04-12T13:38:31.166Z,19.52
2018-04-12T13:53:10.564Z,19.92
2018-04-12T13:55:38.177Z,19.90
2018-04-12T14:10:24.595Z,20.32
2018-04-12T14:13:05.281Z,20.35
2018-04-12T14:22:00.260Z,20.01
2018-04-12T14:24:29.059Z,19.63
2018-04-12T14:26:56.593Z,19.30
2018-04-12T14:29:25.337Z,19.09
2018-04-12T14:31:52.914Z,18.95
2018-04-12T14:43:29.238Z,19.65
2018-04-12T14:45:57.863Z,19.69
2018-04-12T14:48:25.579Z,19.78
2018-04-12T15:00:02.117Z,20.23
2018-04-12T15:02:29.778Z,20.26
2018-04-12T15:04:57.409Z,20.39
2018-04-12T15:13:32.245Z,20.60
2018-04-12T15:16:00.931Z,20.71
2018-04-12T15:18:28.514Z,20.72
2018-04-12T15:20:56.200Z,20.77
2018-04-12T15:23:23.774Z,20.81
2018-04-12T15:35:02.982Z,20.89
2018-04-12T15:37:32.244Z,20.92
2018-04-12T15:40:03.726Z,20.97
2018-04-12T15:51:40.101Z,21.36
2018-04-12T15:54:07.945Z,21.34
2018-04-12T15:56:35.950Z,21.24
2018-04-12T16:08:15.212Z,21.38
2018-04-12T16:10:43.081Z,21.44
2018-04-12T16:13:10.780Z,21.40
2018-04-12T16:24:46.588Z,21.80
2018-04-12T16:27:14.240Z,22.02
2018-04-12T16:29:42.026Z,22.27
2018-04-12T16:41:28.800Z,22.40
2018-04-12T16:44:05.642Z,22.18
2018-04-12T16:46:33.716Z,21.87
2018-04-12T17:01:20.540Z,21.45
2018-04-12T17:22:13.483Z,22.19
2018-04-12T17:33:49.861Z,22.30
2018-04-12T17:36:17.409Z,22.14
2018-04-12T17:38:44.993Z,21.88
2018-04-12T17:41:12.652Z,21.65
2018-04-12T17:43:43.752Z,21.50
2018-04-12T17:46:13.259Z,21.33
2018-04-12T17:48:41.161Z,21.11
2018-04-12T17:51:08.756Z,20.95
2018-04-12T17:53:36.322Z,20.73
2018-04-12T17:56:03.949Z,20.43
2018-04-12T17:58:32.797Z,20.15
2018-04-12T18:01:04.813Z,19.82
2018-04-12T18:03:36.404Z,19.50
2018-04-12T18:06:05.045Z,19.21
2018-04-12T18:08:32.575Z,18.91
2018-04-12T18:11:00.220Z,18.62
2018-04-12T18:13:27.855Z,18.39
2018-04-12T18:28:17.452Z,17.46
2018-04-12T18:30:54.155Z,17.30
2018-04-12T19:21:55.397Z,14.19
2018-04-12T19:33:31.746Z,13.70
2018-04-12T19:35:59.488Z,13.61
2018-04-12T19:38:27.619Z,13.51
2018-04-12T19:50:04.195Z,13.11
2018-04-12T19:52:31.769Z,13.05
2018-04-12T19:54:59.394Z,13.00
2018-04-12T20:06:35.513Z,12.63
2018-04-12T20:09:03.113Z,12.56
2018-04-12T20:11:30.743Z,12.49
2018-04-12T20:13:58.307Z,12.44
2018-04-12T20:25:34.763Z,12.19
2018-04-12T20:28:02.351Z,12.16
2018-04-12T20:30:29.901Z,12.12
2018-04-12T20:42:06.109Z,11.94
2018-04-12T20:44:33.785Z,11.90
2018-04-12T20:47:01.331Z,11.87
2018-04-12T20:58:37.920Z,11.72
2018-04-12T21:01:05.684Z,11.70
2018-04-12T21:03:33.312Z,11.67
2018-04-12T21:14:46.789Z,11.55
2018-04-12T21:17:14.311Z,11.54
2018-04-12T21:19:41.943Z,11.52
2018-04-12T21:22:09.584Z,11.51
2018-04-12T21:32:19.235Z,11.41
2018-04-12T21:34:46.782Z,11.40
2018-04-12T21:37:14.440Z,11.38
2018-04-12T21:39:42.907Z,11.37
2018-04-12T21:49:52.088Z,11.29
2018-04-12T21:52:19.659Z,11.27
2018-04-12T21:54:47.215Z,11.22
2018-04-12T21:57:15.434Z,11.19
2018-04-12T22:02:29.715Z,11.15
2018-04-12T22:07:59.662Z,11.15
2018-04-12T22:10:27.245Z,11.13
2018-04-12T22:12:54.809Z,11.12
2018-04-12T22:24:31.207Z,11.17
2018-04-12T22:26:58.778Z,11.15
2018-04-12T22:29:26.288Z,11.14
2018-04-12T22:31:53.907Z,11.16
2018-04-12T22:34:21.514Z,11.20
2018-04-12T22:36:49.107Z,11.22
2018-04-12T22:39:16.732Z,11.23
2018-04-12T22:41:44.348Z,11.27
2018-04-12T22:44:11.890Z,11.31
2018-04-12T22:46:39.415Z,11.35
2018-04-12T22:49:06.975Z,11.39
2018-04-12T22:51:34.573Z,11.42
2018-04-12T22:54:02.248Z,11.44
2018-04-12T22:56:29.836Z,11.46
2018-04-12T22:58:57.359Z,11.47
2018-04-12T23:01:24.919Z,11.47
2018-04-12T23:03:52.559Z,11.48
2018-04-12T23:06:20.279Z,11.48
2018-04-12T23:08:47.969Z,11.49
2018-04-12T23:11:15.875Z,11.50
2018-04-12T23:13:43.909Z,11.53
2018-04-12T23:16:11.440Z,11.55
2018-04-12T23:18:39.031Z,11.56
2018-04-12T23:21:06.585Z,11.53
2018-04-12T23:23:34.177Z,11.51
2018-04-12T23:26:01.766Z,11.48
2018-04-12T23:28:29.315Z,11.46
2018-04-12T23:30:57.580Z,11.46
2018-04-12T23:33:25.131Z,11.45
2018-04-12T23:35:52.659Z,11.43
2018-04-12T23:38:20.216Z,11.41
2018-04-12T23:40:47.877Z,11.39
2018-04-12T23:43:15.887Z,11.39
2018-04-12T23:45:44.517Z,11.38
2018-04-12T23:48:12.868Z,11.40
2018-04-12T23:50:40.410Z,11.38
2018-04-12T23:53:07.923Z,11.36
2018-04-12T23:55:35.448Z,11.37
2018-04-12T23:58:03.044Z,11.38
